Time;durP1;ratioP1;P1;durP2;ratioP2;P2;SDS_P1;SDS_P2;PMS_P1;PMS_P2;Temp;Humidity;BMP_temperature;BMP_pressure;BME280_temperature;BME280_humidity;BME280_pressure;Samples;Min_cycle;Max_cycle;Signal;HPM_P1;HPM_P2
2021/01/13 06:15:11;;;;;;;3.53;0.60;;;;;;;-0.98;72.29;97172.44;12927234;22;20107;31
2021/01/13 06:20:40;;;;;;;5.60;0.93;;;;;;;-1.12;72.34;97179.22;10636190;27;818295;-78
2021/01/13 06:26:00;;;;;;;5.82;1.67;;;;;;;-1.22;73.23;97182.38;10591057;28;20055;-78
2021/01/13 06:31:27;;;;;;;5.15;0.90;;;;;;;-1.04;73.20;97191.75;10607047;28;20108;-77
2021/01/13 06:36:50;;;;;;;3.55;0.70;;;;;;;-0.75;72.69;97191.88;10606066;28;20067;-77
2021/01/13 06:42:10;;;;;;;4.93;0.95;;;;;;;-0.59;72.07;97202.47;10621736;28;20490;-79
2021/01/13 06:47:29;;;;;;;3.50;0.68;;;;;;;-0.49;72.12;97202.75;10590483;28;20506;-77
2021/01/13 06:52:49;;;;;;;4.97;0.50;;;;;;;-0.43;71.68;97208.09;10619799;28;20059;-77
2021/01/13 06:58:15;;;;;;;3.63;0.52;;;;;;;-0.40;71.51;97216.00;10619793;28;20502;-78
2021/01/13 07:03:34;;;;;;;4.75;0.60;;;;;;;-0.31;72.15;97232.00;10628823;28;20104;-80
2021/01/13 07:08:54;;;;;;;3.45;0.80;;;;;;;-0.18;72.26;97233.97;10633533;28;20055;-79
2021/01/13 07:14:17;;;;;;;3.38;0.90;;;;;;;-0.19;73.15;97242.69;10635080;28;20055;-80
2021/01/13 07:19:45;;;;;;;4.65;1.05;;;;;;;-0.31;74.58;97242.97;10595365;28;20413;-79
2021/01/13 07:25:14;;;;;;;3.33;1.00;;;;;;;-0.40;75.20;97240.69;10595327;28;20055;-80
2021/01/13 07:30:34;;;;;;;4.68;1.17;;;;;;;-0.46;76.22;97236.59;10560395;28;20060;-80
2021/01/13 07:35:59;;;;;;;4.70;0.60;;;;;;;-0.42;75.22;97231.53;10579560;28;20060;-80
2021/01/13 07:42:35;;;;;;;6.22;1.20;;;;;;;-0.40;75.75;97240.69;10566974;28;20052;-83
2021/01/13 07:49:30;;;;;;;5.38;1.10;;;;;;;-0.37;74.88;97236.88;10415025;28;20058;-82
2021/01/13 07:56:10;;;;;;;3.75;1.35;;;;;;;0.26;73.98;97240.38;10402650;28;20046;-81
2021/01/13 08:02:18;;;;;;;4.15;1.30;;;;;;;1.26;72.04;97238.94;10314542;28;20065;-79
2021/01/13 08:07:39;;;;;;;7.63;1.58;;;;;;;7.09;68.62;97233.53;10426853;28;20495;-80
2021/01/13 08:14:01;;;;;;;4.65;1.48;;;;;;;14.54;53.32;97240.56;10473057;28;20057;-80
2021/01/13 08:27:31;;;;;;;3.47;1.10;;;;;;;12.27;60.74;97252.69;10299252;28;20563;-80
2021/01/13 08:32:52;;;;;;;3.28;1.17;;;;;;;15.53;43.09;97262.97;10311379;28;20066;-83
2021/01/13 08:38:14;;;;;;;2.88;1.10;;;;;;;20.76;44.07;97290.31;10267269;28;20066;-84
2021/01/13 08:43:34;;;;;;;4.30;1.52;;;;;;;20.65;36.40;97285.81;10294720;28;20101;-79
2021/01/13 08:49:31;;;;;;;3.58;1.30;;;;;;;21.28;33.86;97277.84;10305480;28;20054;-83
2021/01/13 08:54:56;;;;;;;47.33;4.60;;;;;;;27.72;24.03;97287.94;10365217;28;20068;-82
2021/01/13 09:00:18;;;;;;;10.98;1.52;;;;;;;21.44;24.55;97295.19;10379577;28;20058;-84
2021/01/13 09:19:44;;;;;;;4.57;1.00;;;;;;;4.42;48.14;97286.13;11041754;23;20071;-79
2021/01/13 09:32:59;;;;;;;20.08;2.35;;;;;;;16.42;32.50;97273.50;7637193;27;20047;-81
2021/01/13 09:38:39;;;;;;;5.55;1.52;;;;;;;22.78;28.31;97260.22;10715610;23;20059;-76
2021/01/13 09:44:09;;;;;;;3.33;1.48;;;;;;;24.87;23.91;97271.16;10202611;29;20059;-77
2021/01/13 09:49:29;;;;;;;3.35;1.48;;;;;;;29.32;21.50;97263.25;10213195;29;20170;-77
2021/01/13 09:54:51;;;;;;;5.70;1.30;;;;;;;28.40;16.92;97262.97;10201448;29;20094;-79
2021/01/13 10:00:13;;;;;;;3.35;1.20;;;;;;;25.76;19.86;97247.81;10214655;29;20059;-77
2021/01/13 10:05:36;;;;;;;2.42;0.95;;;;;;;25.20;20.19;97252.75;10214456;29;20115;-77
2021/01/13 10:10:58;;;;;;;3.50;0.90;;;;;;;21.47;20.79;97233.47;10187817;29;20068;-78
2021/01/13 10:16:18;;;;;;;15.83;2.33;;;;;;;20.31;19.48;97226.28;10214259;29;20060;-77
2021/01/13 10:21:47;;;;;;;5.53;1.35;;;;;;;14.84;23.62;97243.25;10215136;29;20064;-78
2021/01/13 10:27:07;;;;;;;4.82;1.33;;;;;;;14.24;27.48;97244.81;10214819;29;20062;-78
2021/01/13 10:32:27;;;;;;;6.93;1.13;;;;;;;11.03;30.36;97215.84;10215284;29;20064;-77
2021/01/13 10:37:54;;;;;;;6.80;1.60;;;;;;;10.46;32.25;97226.47;10214433;29;20075;-77
2021/01/13 10:43:14;;;;;;;10.55;2.60;;;;;;;11.08;33.16;97214.72;10215192;29;20594;-77
2021/01/13 10:48:36;;;;;;;6.72;1.75;;;;;;;10.46;33.25;97226.47;10189683;29;20083;-78
2021/01/13 10:53:56;;;;;;;7.15;1.83;;;;;;;10.55;35.00;97211.69;10215812;29;20091;-77
2021/01/13 11:11:07;;;;;;;4.88;1.00;;;;;;;10.81;33.22;97186.66;10099130;27;20583;-78
2021/01/13 11:16:27;;;;;;;4.10;1.00;;;;;;;9.63;35.51;97185.16;10160002;29;20071;-77
2021/01/13 11:21:56;;;;;;;60.42;4.97;;;;;;;7.41;38.63;97189.97;10201666;29;20064;-79
2021/01/13 11:28:07;;;;;;;5.55;1.15;;;;;;;6.72;40.67;97194.06;10426077;23;20514;-79
2021/01/13 12:44:44;;;;;;;4.70;1.17;;;;;;;2.84;52.63;97122.38;10499101;24;20058;-80
2021/01/13 12:50:07;;;;;;;4.78;1.10;;;;;;;2.79;54.75;97113.00;10557073;24;20027;-80
2021/01/13 12:55:28;;;;;;;7.93;1.40;;;;;;;3.04;52.41;97120.63;9927074;29;20125;-81
2021/01/13 13:00:48;;;;;;;4.10;1.10;;;;;;;3.09;54.55;97109.41;9967007;29;20058;-80
2021/01/13 13:06:10;;;;;;;4.53;1.25;;;;;;;2.82;56.65;97116.69;9963342;29;20062;-81
2021/01/13 13:29:20;;;;;;;5.80;1.15;;;;;;;2.76;56.27;97100.34;11887511;24;21434;-82
2021/01/13 13:41:46;;;;;;;5.17;1.50;;;;;;;2.56;56.91;97091.06;10967693;24;20099;31
2021/01/13 14:38:13;;;;;;;3.95;1.00;;;;;;;1.83;63.13;97081.84;9952504;29;20422;-80
2021/01/13 14:43:52;;;;;;;3.70;1.20;;;;;;;1.75;64.02;97072.16;10426652;24;20063;-80
2021/01/13 14:49:55;;;;;;;3.28;0.88;;;;;;;1.61;63.79;97077.81;9950338;29;20051;-84
2021/01/13 14:56:10;;;;;;;7.82;1.65;;;;;;;1.55;63.27;97071.78;11328174;24;20595;-79
2021/01/13 15:01:33;;;;;;;4.30;1.15;;;;;;;1.55;62.77;97062.81;9941303;29;20464;-76
2021/01/13 15:07:00;;;;;;;4.88;1.45;;;;;;;1.63;63.40;97061.50;9974337;29;20122;-77
2021/01/13 15:12:19;;;;;;;5.53;1.30;;;;;;;1.54;64.31;97051.03;9955886;29;20077;-77
2021/01/13 15:17:39;;;;;;;2.50;0.60;;;;;;;1.46;64.67;97061.34;9951461;29;20137;-77
2021/01/13 15:22:59;;;;;;;2.40;1.15;;;;;;;1.46;64.35;97057.84;9959944;29;20141;-76
2021/01/13 15:28:19;;;;;;;6.97;1.30;;;;;;;1.38;65.35;97053.06;9976046;29;20122;-77
2021/01/13 15:33:40;;;;;;;4.60;0.85;;;;;;;1.38;63.45;97047.56;9976025;29;20064;-76
2021/01/13 15:38:59;;;;;;;2.63;0.82;;;;;;;1.33;65.28;97037.47;9985083;29;20549;-76
2021/01/13 15:44:20;;;;;;;2.95;0.90;;;;;;;1.34;64.96;97035.47;9944036;29;20149;-76
2021/01/13 15:49:40;;;;;;;3.80;1.13;;;;;;;1.26;66.12;97029.97;9936135;29;20066;-76
2021/01/13 15:55:01;;;;;;;3.10;1.20;;;;;;;1.25;65.55;97019.50;9949827;29;20062;-75
2021/01/13 16:00:24;;;;;;;5.45;1.00;;;;;;;1.28;64.69;97019.16;9936475;29;20177;-77
2021/01/13 16:05:44;;;;;;;5.85;1.20;;;;;;;1.30;65.72;97022.09;9935950;29;20076;-77
2021/01/13 16:11:06;;;;;;;2.47;1.25;;;;;;;1.30;64.62;97007.59;9936022;29;20090;-77
2021/01/13 16:16:27;;;;;;;3.88;1.35;;;;;;;1.27;65.24;97009.44;9949009;29;20181;-77
2021/01/13 16:21:50;;;;;;;3.17;1.70;;;;;;;1.22;65.54;97004.84;9935343;29;20141;-77
2021/01/13 16:27:28;;;;;;;4.95;1.67;;;;;;;1.23;65.29;96992.56;9935087;29;20145;-76
2021/01/13 16:32:49;;;;;;;3.70;1.48;;;;;;;1.17;65.30;96994.78;9935022;29;20067;-76
2021/01/13 16:38:09;;;;;;;3.28;1.30;;;;;;;1.13;65.21;96975.16;9948773;29;20070;-76
2021/01/13 16:43:31;;;;;;;4.35;1.65;;;;;;;1.07;64.57;96974.63;9948127;29;20120;-74
2021/01/13 16:48:51;;;;;;;1.70;0.85;;;;;;;1.01;64.96;96972.03;9922253;29;20067;-76
2021/01/13 16:54:12;;;;;;;3.70;1.13;;;;;;;0.99;64.62;96960.13;9949764;29;20145;-73
2021/01/13 16:59:31;;;;;;;3.42;1.05;;;;;;;0.98;64.96;96951.16;9934280;29;20071;-73
2021/01/13 17:04:54;;;;;;;3.80;1.20;;;;;;;0.96;64.75;96928.97;9920503;29;20507;-76
2021/01/13 17:10:18;;;;;;;4.07;1.30;;;;;;;0.94;65.03;96931.53;9921677;29;20062;-75
2021/01/13 17:15:56;;;;;;;4.60;1.27;;;;;;;0.86;64.90;96912.28;9933727;29;20059;-77
2021/01/13 17:21:16;;;;;;;2.97;1.60;;;;;;;0.88;64.46;96919.28;9923737;29;20059;-79
2021/01/13 17:26:39;;;;;;;5.30;1.38;;;;;;;0.86;64.96;96906.81;10030433;24;20059;-77
2021/01/13 17:38:45;;;;;;;5.47;1.77;;;;;;;0.72;65.13;96875.31;10523645;24;20073;-80
2021/01/13 17:56:51;;;;;;;4.90;1.58;;;;;;;0.59;64.99;96839.06;10229677;24;20066;-79
2021/01/13 18:02:37;;;;;;;4.30;1.33;;;;;;;0.63;64.82;96831.91;9832435;30;20056;-78
2021/01/13 18:07:58;;;;;;;4.67;1.43;;;;;;;0.57;64.90;96810.13;9822281;30;20068;-76
2021/01/13 18:13:19;;;;;;;6.03;1.30;;;;;;;0.62;64.93;96810.50;9834343;30;20318;-77
2021/01/13 18:18:39;;;;;;;5.88;1.55;;;;;;;0.61;64.94;96801.53;9834389;30;20072;-77
2021/01/13 18:23:59;;;;;;;5.90;1.55;;;;;;;0.55;65.25;96798.94;9834915;30;20071;-78
2021/01/13 18:29:22;;;;;;;3.05;1.38;;;;;;;0.51;65.35;96797.88;9838864;30;20088;-79
2021/01/13 18:34:42;;;;;;;3.60;1.55;;;;;;;0.52;65.17;96794.56;9838922;30;20059;-78
2021/01/13 18:40:02;;;;;;;4.90;1.65;;;;;;;0.47;66.10;96795.47;9870418;30;20516;-77
2021/01/13 18:45:22;;;;;;;3.40;1.55;;;;;;;0.49;66.11;96770.97;9874473;30;20091;-80
2021/01/13 18:50:43;;;;;;;4.63;1.67;;;;;;;0.47;66.64;96756.28;9860944;30;20067;-79
2021/01/13 18:56:03;;;;;;;6.15;1.98;;;;;;;0.42;66.97;96757.22;9864397;30;20568;-79
2021/01/13 19:08:48;;;;;;;2.97;1.48;;;;;;;0.28;67.46;96738.19;10170059;24;20061;-81
2021/01/13 19:15:01;;;;;;;5.07;1.83;;;;;;;0.27;68.16;96731.22;10413821;24;20887;31
2021/01/13 19:20:23;;;;;;;5.28;1.65;;;;;;;0.31;67.67;96732.91;9783449;30;20052;-82
2021/01/13 19:25:43;;;;;;;4.85;1.50;;;;;;;0.32;67.72;96726.84;9801826;30;20071;-78
2021/01/13 19:31:03;;;;;;;4.55;1.80;;;;;;;0.24;68.54;96707.63;9803201;30;20109;-78
2021/01/13 19:36:23;;;;;;;4.35;1.48;;;;;;;0.15;67.96;96697.22;9804311;30;20060;-78
2021/01/13 19:41:43;;;;;;;5.50;1.83;;;;;;;0.13;67.79;96688.06;9803253;30;20072;-78
2021/01/13 19:47:02;;;;;;;6.57;2.10;;;;;;;0.08;67.40;96691.72;9802694;30;20064;-78
2021/01/13 19:52:22;;;;;;;5.28;1.75;;;;;;;0.01;67.90;96687.72;9802683;30;20069;-79
2021/01/13 19:57:42;;;;;;;3.13;1.50;;;;;;;-0.03;67.42;96681.84;9802235;30;20071;-75
2021/01/13 20:03:02;;;;;;;4.70;1.40;;;;;;;-0.06;67.57;96682.97;9802435;30;20206;-76
2021/01/13 20:08:25;;;;;;;6.50;2.13;;;;;;;-0.03;67.96;96665.38;9801003;30;20096;-76
2021/01/13 20:13:45;;;;;;;5.18;1.65;;;;;;;-0.04;68.02;96650.94;9800734;30;20071;-76
2021/01/13 20:19:06;;;;;;;4.68;1.23;;;;;;;0.01;67.62;96652.06;9801891;30;20147;-76
2021/01/13 20:24:28;;;;;;;6.68;1.75;;;;;;;-0.01;68.80;96633.38;9801434;30;20148;-76
2021/01/13 20:29:48;;;;;;;4.32;1.75;;;;;;;0.05;68.76;96627.72;9802631;30;20095;-77
2021/01/13 20:35:09;;;;;;;4.25;1.50;;;;;;;0.15;68.45;96642.31;9802864;30;20068;-76
2021/01/13 20:40:29;;;;;;;4.63;1.50;;;;;;;0.18;68.07;96629.50;9800345;30;20424;-76
2021/01/13 20:45:48;;;;;;;3.42;1.38;;;;;;;0.14;69.63;96616.16;9800025;30;20069;-79
2021/01/13 20:51:09;;;;;;;4.40;1.73;;;;;;;0.20;70.34;96611.22;9793935;30;20061;-80
2021/01/13 20:56:29;;;;;;;6.25;1.67;;;;;;;0.15;70.73;96600.44;9811712;30;20536;-80
2021/01/13 21:01:51;;;;;;;3.83;1.30;;;;;;;0.11;71.13;96573.38;9797240;30;20068;-79
2021/01/13 21:07:11;;;;;;;4.25;2.05;;;;;;;0.07;72.58;96594.22;9809762;30;20505;-79
2021/01/13 21:12:32;;;;;;;7.20;1.95;;;;;;;-0.02;73.21;96576.31;9804423;30;20098;-79
2021/01/13 21:17:55;;;;;;;4.35;1.60;;;;;;;-0.03;71.86;96564.59;9803670;30;20080;-77
2021/01/13 21:23:15;;;;;;;2.45;1.30;;;;;;;-0.03;73.52;96555.66;9801561;30;20064;-78
2021/01/13 21:28:35;;;;;;;4.28;1.30;;;;;;;-0.15;76.20;96560.06;9799125;30;20504;-77
2021/01/13 21:33:55;;;;;;;7.47;1.77;;;;;;;0.11;78.53;96542.47;9801180;30;20141;-77
2021/01/13 21:39:21;;;;;;;6.78;1.80;;;;;;;-0.35;78.70;96529.56;9798672;30;20076;-76
2021/01/13 21:44:40;;;;;;;4.70;1.90;;;;;;;-0.36;76.47;96516.41;9798734;30;20060;-77
2021/01/13 21:50:01;;;;;;;7.00;2.25;;;;;;;-0.43;78.66;96523.34;9798428;30;20064;-77
2021/01/13 21:55:20;;;;;;;4.78;1.60;;;;;;;-0.41;78.24;96520.78;9799249;30;20068;-77
2021/01/13 22:00:40;;;;;;;4.25;1.58;;;;;;;-0.41;76.00;96518.03;9799587;30;20078;-77
2021/01/13 22:06:00;;;;;;;5.25;2.00;;;;;;;-0.41;76.82;96526.28;9799474;30;20069;-77
2021/01/13 22:11:22;;;;;;;3.95;1.67;;;;;;;-0.41;77.91;96509.09;9800519;30;20524;-77
2021/01/13 22:16:41;;;;;;;4.30;1.70;;;;;;;-0.42;77.76;96513.84;9799197;30;20073;-77
2021/01/13 22:22:02;;;;;;;3.60;1.30;;;;;;;-0.32;76.86;96501.03;9798350;30;20070;-77
2021/01/13 22:27:27;;;;;;;3.80;1.15;;;;;;;-0.30;76.41;96508.69;9798031;30;20513;-79
2021/01/13 22:32:47;;;;;;;4.15;1.40;;;;;;;-0.24;76.73;96503.03;9798073;30;20130;-79
2021/01/13 22:38:07;;;;;;;3.67;2.10;;;;;;;-0.16;76.05;96499.00;9799266;30;20064;-79
2021/01/13 22:43:27;;;;;;;4.22;1.63;;;;;;;-0.12;75.47;96479.41;9799708;30;20065;-79
2021/01/13 22:48:47;;;;;;;4.53;1.38;;;;;;;-0.08;74.81;96479.78;9799013;30;20065;-79
2021/01/13 22:54:07;;;;;;;4.30;1.42;;;;;;;-0.05;74.89;96473.16;9799420;30;20417;-79
2021/01/13 22:59:27;;;;;;;4.63;1.27;;;;;;;0.02;74.82;96480.66;9787633;30;20405;-79
2021/01/13 23:04:47;;;;;;;3.15;1.33;;;;;;;0.04;75.29;96486.31;9804909;30;20152;-79
2021/01/13 23:10:07;;;;;;;4.38;1.20;;;;;;;0.07;75.79;96504.41;9806405;30;20065;-79
2021/01/13 23:15:27;;;;;;;3.33;1.35;;;;;;;0.03;79.43;96512.28;9817227;30;20068;-79
2021/01/13 23:20:47;;;;;;;2.33;0.90;;;;;;;-0.01;80.71;96534.59;9803888;30;20479;-79
2021/01/13 23:26:07;;;;;;;3.10;1.20;;;;;;;0.08;80.42;96541.53;9815999;30;20549;-79
2021/01/13 23:31:27;;;;;;;4.65;1.10;;;;;;;0.06;81.38;96555.06;9804502;30;20118;-78
2021/01/13 23:36:47;;;;;;;2.20;1.25;;;;;;;0.27;80.82;96596.72;9803350;30;20552;-76
2021/01/13 23:42:06;;;;;;;1.15;0.40;;;;;;;0.39;80.81;96575.13;9803412;30;20076;-76
2021/01/13 23:47:26;;;;;;;0.35;0.00;;;;;;;0.19;81.77;96582.31;9803057;30;20061;-76
2021/01/13 23:52:47;;;;;;;0.10;0.10;;;;;;;-0.06;82.34;96559.50;9803797;30;20141;-77
2021/01/13 23:58:07;;;;;;;0.77;0.20;;;;;;;-0.19;80.35;96556.94;9804713;30;20103;-76
